createdAt,value
2022-10-16T00:01:20.807Z,9.17
2022-10-16T00:03:49.134Z,8.00
2022-10-16T00:06:18.968Z,9.27
2022-10-16T00:08:46.121Z,9.00
2022-10-16T00:11:16.511Z,9.20
2022-10-16T00:13:44.830Z,7.85
2022-10-16T00:16:13.517Z,9.13
2022-10-16T00:18:41.334Z,8.52
2022-10-16T00:21:15.025Z,9.07
2022-10-16T00:23:42.331Z,7.40
2022-10-16T00:26:14.460Z,9.43
2022-10-16T00:28:41.685Z,8.80
2022-10-16T00:31:12.991Z,9.10
2022-10-16T00:33:41.151Z,8.70
2022-10-16T00:36:10.573Z,8.80
2022-10-16T00:38:38.776Z,9.37
2022-10-16T00:41:07.512Z,9.70
2022-10-16T00:43:54.628Z,9.02
2022-10-16T00:46:26.094Z,9.30
2022-10-16T00:48:55.871Z,8.60
2022-10-16T00:51:29.540Z,10.07
2022-10-16T00:53:58.595Z,8.93
2022-10-16T00:56:25.883Z,8.43
2022-10-16T00:58:53.273Z,10.48
2022-10-16T01:01:20.438Z,9.05
2022-10-16T01:03:47.678Z,9.67
2022-10-16T01:06:36.414Z,9.32
2022-10-16T01:09:11.404Z,9.63
2022-10-16T01:12:15.653Z,9.73
2022-10-16T01:14:58.084Z,10.32
2022-10-16T01:17:49.244Z,10.20
2022-10-16T01:20:33.053Z,11.00
2022-10-16T01:23:00.145Z,10.57
2022-10-16T01:25:48.927Z,11.37
2022-10-16T01:28:18.110Z,11.23
2022-10-16T01:30:47.555Z,11.93
2022-10-16T01:33:50.251Z,10.17
2022-10-16T01:36:22.729Z,11.47
2022-10-16T01:38:53.979Z,10.60
2022-10-16T01:41:27.758Z,11.87
2022-10-16T01:44:10.756Z,12.60
2022-10-16T01:46:41.235Z,11.53
2022-10-16T01:49:11.495Z,11.17
2022-10-16T01:51:38.697Z,11.93
2022-10-16T01:54:09.184Z,11.60
2022-10-16T01:56:37.814Z,11.87
2022-10-16T01:59:19.537Z,12.97
2022-10-16T02:01:53.853Z,12.70
2022-10-16T02:04:29.070Z,12.10
2022-10-16T02:06:56.473Z,12.50
2022-10-16T02:09:23.581Z,11.75
2022-10-16T02:11:53.820Z,12.57
2022-10-16T02:14:23.102Z,12.53
2022-10-16T02:16:50.256Z,12.20
2022-10-16T02:19:21.187Z,12.73
2022-10-16T02:21:57.254Z,11.77
2022-10-16T02:24:55.496Z,11.70
2022-10-16T02:27:51.350Z,10.90
2022-10-16T02:30:24.455Z,10.97
2022-10-16T02:32:53.037Z,11.73
2022-10-16T02:35:22.235Z,12.07
2022-10-16T02:37:50.963Z,12.03
2022-10-16T02:40:21.503Z,12.67
2022-10-16T02:42:53.432Z,12.27
2022-10-16T02:45:21.058Z,13.10
2022-10-16T02:47:48.170Z,11.75
2022-10-16T02:50:15.664Z,11.82
2022-10-16T02:52:42.918Z,11.30
2022-10-16T02:55:10.082Z,12.20
2022-10-16T02:57:38.188Z,12.27
2022-10-16T03:00:06.381Z,12.20
2022-10-16T03:02:33.404Z,11.82
2022-10-16T03:05:00.411Z,11.63
2022-10-16T03:07:27.661Z,12.33
2022-10-16T03:09:56.398Z,11.57
2022-10-16T03:12:23.480Z,11.40
2022-10-16T03:14:50.553Z,12.63
2022-10-16T03:17:17.928Z,12.33
2022-10-16T03:19:45.013Z,12.13
2022-10-16T03:22:12.069Z,12.23
2022-10-16T03:24:39.237Z,12.77
2022-10-16T03:27:06.442Z,12.03
2022-10-16T03:29:33.968Z,12.13
2022-10-16T03:32:01.702Z,11.47
2022-10-16T03:34:29.006Z,11.33
2022-10-16T03:36:55.898Z,12.20
2022-10-16T03:39:23.036Z,12.37
2022-10-16T03:41:51.090Z,12.40
2022-10-16T03:44:18.218Z,11.53
2022-10-16T03:46:45.059Z,12.90
2022-10-16T03:49:11.982Z,13.33
2022-10-16T03:51:39.079Z,12.03
2022-10-16T03:54:06.165Z,12.43
2022-10-16T03:56:33.085Z,11.40
2022-10-16T03:59:00.559Z,11.93
2022-10-16T04:01:27.617Z,11.47
2022-10-16T04:03:54.725Z,12.20
2022-10-16T04:06:21.668Z,11.90
2022-10-16T04:08:49.388Z,12.73
2022-10-16T04:11:16.500Z,12.00
2022-10-16T04:13:43.689Z,12.97
2022-10-16T04:16:10.806Z,12.53
2022-10-16T04:18:38.374Z,13.13
2022-10-16T04:21:07.166Z,11.53
2022-10-16T04:23:34.252Z,12.30
2022-10-16T04:26:01.646Z,12.60
2022-10-16T04:28:29.220Z,13.53
2022-10-16T04:30:56.216Z,12.23
2022-10-16T04:33:23.401Z,12.33
2022-10-16T04:35:57.640Z,13.10
2022-10-16T04:38:24.981Z,12.30
2022-10-16T04:40:51.896Z,13.30
2022-10-16T04:43:19.144Z,12.47
2022-10-16T04:45:46.390Z,13.97
2022-10-16T04:48:13.500Z,12.90
2022-10-16T04:50:40.438Z,11.87
2022-10-16T04:53:08.287Z,12.97
2022-10-16T04:55:35.255Z,12.43
2022-10-16T04:58:03.302Z,12.83
2022-10-16T05:00:30.394Z,12.40
2022-10-16T05:02:58.248Z,13.37
2022-10-16T05:05:25.345Z,13.40
2022-10-16T05:07:52.740Z,12.83
2022-10-16T05:10:20.220Z,12.60
2022-10-16T05:12:47.990Z,12.50
2022-10-16T05:15:15.281Z,12.87
2022-10-16T05:17:44.629Z,12.47
2022-10-16T05:20:13.040Z,13.57
2022-10-16T05:22:40.038Z,12.53
2022-10-16T05:25:07.446Z,12.80
2022-10-16T05:27:34.571Z,12.37
2022-10-16T05:30:02.758Z,12.60
2022-10-16T05:32:29.770Z,13.50
2022-10-16T05:34:56.654Z,13.70
2022-10-16T05:37:24.068Z,13.93
2022-10-16T05:39:51.225Z,13.40
2022-10-16T05:42:18.094Z,12.53
2022-10-16T05:44:45.315Z,12.40
2022-10-16T05:47:15.130Z,11.83
2022-10-16T05:49:42.009Z,12.83
2022-10-16T05:52:08.851Z,13.20
2022-10-16T05:54:35.850Z,12.67
2022-10-16T05:57:03.294Z,12.33
2022-10-16T05:59:30.385Z,13.33
2022-10-16T06:01:57.378Z,12.80
2022-10-16T06:04:24.566Z,13.53
2022-10-16T06:06:51.619Z,12.53
2022-10-16T06:09:18.476Z,12.00
2022-10-16T06:11:45.304Z,12.23
2022-10-16T06:14:12.191Z,12.83
2022-10-16T06:16:39.576Z,12.60
2022-10-16T06:19:09.185Z,13.07
2022-10-16T06:21:36.098Z,11.77
2022-10-16T06:24:03.397Z,12.37
2022-10-16T06:26:33.063Z,12.40
2022-10-16T06:29:00.975Z,12.93
2022-10-16T06:31:31.285Z,11.87
2022-10-16T06:33:58.768Z,10.23
2022-10-16T06:36:26.679Z,11.27
2022-10-16T06:38:54.063Z,12.93
2022-10-16T06:41:22.834Z,10.77
2022-10-16T06:43:50.668Z,10.97
2022-10-16T06:46:20.769Z,10.33
2022-10-16T06:48:48.112Z,12.13
2022-10-16T06:51:17.924Z,11.05
2022-10-16T06:54:02.414Z,11.30
2022-10-16T06:56:32.482Z,11.40
2022-10-16T06:59:00.312Z,12.05
2022-10-16T07:01:27.710Z,13.40
2022-10-16T07:03:55.059Z,13.27
2022-10-16T07:06:24.218Z,13.07
2022-10-16T07:08:52.091Z,12.52
2022-10-16T07:11:21.987Z,10.52
2022-10-16T07:13:54.413Z,11.80
2022-10-16T07:16:27.736Z,11.25
2022-10-16T07:19:02.411Z,11.50
2022-10-16T07:21:31.705Z,12.38
2022-10-16T07:24:04.163Z,10.65
2022-10-16T07:26:33.790Z,11.27
2022-10-16T07:29:01.778Z,11.48
2022-10-16T07:31:29.475Z,11.82
2022-10-16T07:33:58.695Z,10.82
2022-10-16T07:36:25.742Z,10.20
2022-10-16T07:38:55.521Z,9.95
2022-10-16T07:41:26.167Z,11.35
2022-10-16T07:43:54.288Z,10.65
2022-10-16T07:46:23.463Z,10.98
2022-10-16T07:48:50.612Z,11.18
2022-10-16T07:51:20.187Z,10.80
2022-10-16T07:53:48.058Z,10.52
2022-10-16T07:56:16.373Z,8.90
2022-10-16T07:58:43.830Z,9.68
2022-10-16T08:01:14.140Z,10.80
2022-10-16T08:03:46.301Z,8.80
2022-10-16T08:06:13.413Z,9.73
2022-10-16T08:08:40.395Z,10.70
2022-10-16T08:11:07.728Z,9.77
2022-10-16T08:13:34.825Z,9.90
2022-10-16T08:16:02.617Z,11.25
2022-10-16T08:18:29.625Z,9.20
2022-10-16T08:20:58.944Z,8.85
2022-10-16T08:23:27.216Z,8.50
2022-10-16T08:26:02.488Z,8.80
2022-10-16T08:28:29.885Z,9.00
2022-10-16T08:30:57.993Z,9.85
2022-10-16T08:33:24.822Z,9.60
2022-10-16T08:35:53.529Z,10.13
2022-10-16T08:38:21.011Z,9.00
2022-10-16T08:40:51.188Z,8.93
2022-10-16T08:43:34.583Z,9.35
2022-10-16T08:46:30.511Z,9.75
2022-10-16T08:48:59.988Z,9.45
2022-10-16T08:51:34.441Z,9.35
2022-10-16T08:54:05.486Z,9.10
2022-10-16T08:56:34.329Z,9.80
2022-10-16T08:59:03.254Z,9.93
2022-10-16T09:01:46.726Z,9.13
2022-10-16T09:05:01.720Z,10.00
2022-10-16T09:07:57.521Z,10.27
2022-10-16T09:10:36.552Z,10.30
2022-10-16T09:13:21.885Z,10.32
2022-10-16T09:16:01.829Z,9.80
2022-10-16T09:18:41.031Z,9.32
2022-10-16T09:21:15.361Z,11.15
2022-10-16T09:23:42.309Z,10.52
2022-10-16T09:26:15.119Z,10.77
2022-10-16T09:28:42.635Z,9.10
2022-10-16T09:31:18.536Z,8.90
2022-10-16T09:33:50.249Z,10.68
2022-10-16T09:36:19.135Z,10.90
2022-10-16T09:38:46.042Z,9.43
2022-10-16T09:41:20.126Z,9.23
2022-10-16T09:43:57.199Z,9.60
2022-10-16T09:46:31.219Z,9.98
2022-10-16T09:49:02.689Z,10.23
2022-10-16T09:51:36.538Z,10.40
2022-10-16T09:54:16.522Z,9.98
2022-10-16T09:56:47.367Z,9.48
2022-10-16T09:59:24.825Z,10.45
2022-10-16T10:01:54.392Z,10.82
2022-10-16T10:04:23.876Z,9.52
2022-10-16T10:06:56.424Z,10.38
2022-10-16T10:09:30.574Z,10.82
2022-10-16T10:11:59.454Z,10.00
2022-10-16T10:14:29.713Z,9.02
2022-10-16T10:17:18.076Z,10.05
2022-10-16T10:20:01.610Z,10.13
2022-10-16T10:22:42.516Z,9.52
2022-10-16T10:25:12.652Z,9.63
2022-10-16T10:27:48.213Z,9.82
2022-10-16T10:30:33.944Z,8.65
2022-10-16T10:33:28.986Z,8.90
2022-10-16T10:36:11.206Z,9.00
2022-10-16T10:38:59.687Z,9.10
2022-10-16T10:41:54.665Z,9.82
2022-10-16T10:44:27.150Z,9.77
2022-10-16T10:47:02.555Z,9.40
2022-10-16T10:49:54.150Z,9.07
2022-10-16T10:52:39.780Z,8.40
2022-10-16T10:55:44.514Z,8.18
2022-10-16T10:58:26.478Z,7.93
2022-10-16T11:00:59.136Z,8.95
2022-10-16T11:03:32.007Z,9.20
2022-10-16T11:06:09.575Z,7.68
2022-10-16T11:08:46.578Z,22.27
2022-10-16T11:11:19.409Z,8.77
2022-10-16T11:14:11.208Z,10.80
2022-10-16T11:16:46.144Z,8.98
2022-10-16T11:19:21.923Z,8.30
2022-10-16T11:22:03.886Z,8.50
2022-10-16T11:24:52.784Z,8.00
2022-10-16T11:27:35.074Z,8.60
2022-10-16T11:30:07.955Z,7.47
2022-10-16T11:33:15.711Z,7.63
2022-10-16T11:36:03.784Z,7.68
2022-10-16T11:38:49.349Z,7.85
2022-10-16T11:41:29.049Z,7.82
2022-10-16T11:44:07.427Z,7.05
2022-10-16T11:46:52.642Z,7.10
2022-10-16T11:49:29.048Z,8.15
2022-10-16T11:52:09.183Z,7.93
2022-10-16T11:55:05.156Z,7.82
2022-10-16T11:57:36.791Z,7.40
2022-10-16T12:00:15.075Z,7.38
2022-10-16T12:02:56.239Z,7.32
2022-10-16T12:05:45.393Z,7.60
2022-10-16T12:08:14.913Z,8.43
2022-10-16T12:10:45.174Z,8.55
2022-10-16T12:13:34.658Z,7.22
2022-10-16T12:16:13.809Z,8.07
2022-10-16T12:18:42.537Z,7.97
2022-10-16T12:21:10.348Z,8.20
2022-10-16T12:23:48.858Z,8.27
2022-10-16T12:26:28.558Z,9.30
2022-10-16T12:28:57.135Z,7.72
2022-10-16T12:31:25.279Z,7.93
2022-10-16T12:34:03.495Z,7.60
2022-10-16T12:36:37.622Z,7.55
2022-10-16T12:39:04.618Z,6.90
2022-10-16T12:41:36.984Z,7.07
2022-10-16T12:44:04.591Z,6.53
2022-10-16T12:46:31.372Z,6.20
2022-10-16T12:49:13.321Z,6.97
2022-10-16T12:51:41.622Z,7.25
2022-10-16T12:54:14.628Z,6.68
2022-10-16T12:57:09.119Z,6.57
2022-10-16T12:59:54.225Z,6.68
2022-10-16T13:02:33.053Z,6.32
2022-10-16T13:05:11.618Z,6.75
2022-10-16T13:07:57.274Z,7.00
2022-10-16T13:10:42.441Z,7.60
2022-10-16T13:13:27.236Z,6.78
2022-10-16T13:16:26.881Z,5.57
2022-10-16T13:18:53.678Z,6.80
2022-10-16T13:21:44.929Z,7.38
2022-10-16T13:24:21.038Z,6.78
2022-10-16T13:26:57.333Z,6.10
2022-10-16T13:29:24.702Z,6.70
2022-10-16T13:31:51.632Z,6.43
2022-10-16T13:34:22.496Z,5.78
2022-10-16T13:36:52.677Z,5.20
2022-10-16T13:39:29.553Z,4.68
2022-10-16T13:42:16.018Z,5.07
2022-10-16T13:44:52.134Z,5.43
2022-10-16T13:47:30.360Z,5.13
2022-10-16T13:50:15.362Z,4.97
2022-10-16T13:52:42.564Z,4.50
2022-10-16T13:55:17.945Z,4.72
2022-10-16T13:57:45.892Z,5.10
2022-10-16T14:00:25.552Z,5.03
2022-10-16T14:03:03.249Z,6.45
2022-10-16T14:05:30.341Z,14.45
2022-10-16T14:07:58.272Z,21.85
2022-10-16T14:10:32.170Z,42.67
2022-10-16T14:13:16.739Z,11.82
2022-10-16T14:15:50.339Z,7.88
2022-10-16T14:18:22.513Z,6.88
2022-10-16T14:20:50.621Z,7.10
2022-10-16T14:23:29.898Z,7.10
2022-10-16T14:26:16.874Z,5.82
2022-10-16T14:28:45.374Z,5.50
2022-10-16T14:31:29.173Z,5.68
2022-10-16T14:33:56.574Z,4.90
2022-10-16T14:36:24.680Z,5.18
2022-10-16T14:39:02.976Z,5.72
2022-10-16T14:41:32.169Z,5.68
2022-10-16T14:44:05.164Z,5.50
2022-10-16T14:46:37.939Z,6.07
2022-10-16T14:49:10.502Z,5.43
2022-10-16T14:51:38.556Z,6.03
2022-10-16T14:54:05.716Z,5.13
2022-10-16T14:56:43.328Z,5.60
2022-10-16T14:59:34.797Z,6.70
2022-10-16T15:02:10.299Z,5.47
2022-10-16T15:04:37.136Z,6.45
2022-10-16T15:07:03.946Z,6.20
2022-10-16T15:09:30.786Z,5.75
2022-10-16T15:11:57.673Z,5.47
2022-10-16T15:14:24.461Z,6.53
2022-10-16T15:16:51.311Z,5.93
2022-10-16T15:19:18.309Z,6.65
2022-10-16T15:21:45.181Z,6.82
2022-10-16T15:24:18.039Z,6.43
2022-10-16T15:26:47.702Z,5.55
2022-10-16T15:29:15.443Z,6.50
2022-10-16T15:31:43.736Z,6.43
2022-10-16T15:34:11.650Z,7.03
2022-10-16T15:36:39.653Z,7.22
2022-10-16T15:39:17.841Z,7.53
2022-10-16T15:41:46.205Z,7.38
2022-10-16T15:44:13.021Z,8.43
2022-10-16T15:46:39.878Z,7.00
2022-10-16T15:49:06.973Z,7.35
2022-10-16T15:51:35.061Z,7.72
2022-10-16T15:54:02.941Z,7.65
2022-10-16T15:56:31.606Z,8.35
2022-10-16T15:58:59.345Z,8.93
2022-10-16T16:01:26.760Z,8.73
2022-10-16T16:03:54.911Z,9.30
2022-10-16T16:06:23.178Z,9.32
2022-10-16T16:08:50.202Z,9.57
2022-10-16T16:11:18.461Z,8.63
2022-10-16T16:13:45.332Z,8.80
2022-10-16T16:16:14.951Z,8.82
2022-10-16T16:18:42.774Z,8.70
2022-10-16T16:21:12.104Z,9.48
2022-10-16T16:23:39.078Z,9.20
2022-10-16T16:26:13.700Z,9.68
2022-10-16T16:28:41.963Z,9.77
2022-10-16T16:31:09.586Z,9.35
2022-10-16T16:33:36.419Z,10.55
2022-10-16T16:36:11.635Z,11.80
2022-10-16T16:38:41.427Z,12.02
2022-10-16T16:41:16.878Z,12.07
2022-10-16T16:43:43.862Z,11.98
2022-10-16T16:46:11.519Z,12.75
2022-10-16T16:48:39.215Z,12.93
2022-10-16T16:51:10.933Z,14.15
2022-10-16T16:53:37.852Z,14.80
2022-10-16T16:56:06.506Z,14.63
2022-10-16T16:58:33.915Z,15.05
2022-10-16T17:01:19.291Z,15.95
2022-10-16T17:03:48.378Z,15.98
2022-10-16T17:06:15.541Z,15.48
2022-10-16T17:08:43.213Z,16.83
2022-10-16T17:11:19.220Z,16.60
2022-10-16T17:13:47.541Z,15.65
2022-10-16T17:16:15.286Z,14.30
2022-10-16T17:18:43.232Z,15.18
2022-10-16T17:21:11.190Z,13.15
2022-10-16T17:23:38.696Z,14.68
2022-10-16T17:26:07.653Z,14.88
2022-10-16T17:28:35.211Z,14.68
2022-10-16T17:31:29.853Z,15.57
2022-10-16T17:33:59.169Z,12.85
2022-10-16T17:36:29.589Z,14.60
2022-10-16T17:39:00.376Z,15.30
2022-10-16T17:41:27.589Z,14.43
2022-10-16T17:43:54.629Z,14.57
2022-10-16T17:46:23.879Z,13.45
2022-10-16T17:48:56.093Z,11.60
2022-10-16T17:51:30.917Z,11.75
2022-10-16T17:54:00.340Z,12.35
2022-10-16T17:56:28.258Z,11.63
2022-10-16T17:58:59.685Z,13.13
2022-10-16T18:01:33.573Z,12.82
2022-10-16T18:04:04.709Z,12.70
2022-10-16T18:06:32.502Z,13.65
2022-10-16T18:09:00.275Z,12.88
2022-10-16T18:11:28.227Z,13.25
2022-10-16T18:13:57.227Z,11.02
2022-10-16T18:16:25.796Z,11.90
2022-10-16T18:18:54.051Z,12.63
2022-10-16T18:21:20.903Z,12.45
2022-10-16T18:23:51.082Z,12.32
2022-10-16T18:26:20.773Z,13.07
2022-10-16T18:28:47.703Z,12.65
2022-10-16T18:31:17.329Z,13.57
2022-10-16T18:33:51.198Z,13.90
2022-10-16T18:36:29.440Z,15.63
2022-10-16T18:38:57.601Z,14.23
2022-10-16T18:41:25.606Z,13.85
2022-10-16T18:43:52.550Z,14.20
2022-10-16T18:46:21.854Z,14.57
2022-10-16T18:48:49.263Z,13.65
2022-10-16T18:51:20.604Z,14.63
2022-10-16T18:53:50.283Z,15.02
2022-10-16T18:56:19.048Z,14.38
2022-10-16T18:58:48.612Z,14.50
2022-10-16T19:01:20.975Z,13.63
2022-10-16T19:03:59.034Z,13.93
2022-10-16T19:06:26.898Z,14.60
2022-10-16T19:08:54.597Z,12.63
2022-10-16T19:11:24.699Z,13.80
2022-10-16T19:13:52.302Z,13.70
2022-10-16T19:16:21.985Z,12.48
2022-10-16T19:18:54.476Z,12.18
2022-10-16T19:21:22.121Z,13.43
2022-10-16T19:24:00.993Z,13.90
2022-10-16T19:26:29.491Z,13.27
2022-10-16T19:28:58.505Z,14.02
2022-10-16T19:31:29.153Z,12.98
2022-10-16T19:33:58.379Z,13.70
2022-10-16T19:36:27.743Z,13.10
2022-10-16T19:38:57.064Z,13.15
2022-10-16T19:41:25.174Z,12.32
2022-10-16T19:43:52.813Z,12.70
2022-10-16T19:46:23.183Z,13.68
2022-10-16T19:48:53.798Z,13.20
2022-10-16T19:51:20.729Z,12.93
2022-10-16T19:53:47.947Z,12.38
2022-10-16T19:56:22.265Z,12.48
2022-10-16T19:58:50.082Z,13.70
2022-10-16T20:01:18.138Z,12.68
2022-10-16T20:03:46.134Z,12.68
2022-10-16T20:06:13.762Z,13.32
2022-10-16T20:08:42.738Z,12.00
2022-10-16T20:11:15.258Z,13.75
2022-10-16T20:13:42.909Z,12.98
2022-10-16T20:16:12.002Z,13.90
2022-10-16T20:18:40.338Z,14.05
2022-10-16T20:21:15.067Z,13.80
2022-10-16T20:23:42.530Z,13.35
2022-10-16T20:26:12.707Z,16.23
2022-10-16T20:28:41.083Z,21.45
2022-10-16T20:31:22.710Z,16.10
2022-10-16T20:33:51.953Z,15.20
2022-10-16T20:36:20.783Z,14.25
2022-10-16T20:38:47.852Z,13.48
2022-10-16T20:41:15.951Z,13.02
2022-10-16T20:43:45.787Z,15.02
2022-10-16T20:46:15.236Z,15.55
2022-10-16T20:48:47.183Z,13.93
2022-10-16T20:51:20.880Z,15.20
2022-10-16T20:53:52.340Z,13.60
2022-10-16T20:56:19.179Z,13.75
2022-10-16T20:58:46.227Z,13.52
2022-10-16T21:01:15.529Z,14.32
2022-10-16T21:03:43.156Z,14.30
2022-10-16T21:06:11.645Z,16.33
2022-10-16T21:08:40.827Z,18.67
2022-10-16T21:11:16.907Z,17.30
2022-10-16T21:13:44.358Z,14.23
2022-10-16T21:16:12.556Z,14.88
2022-10-16T21:18:44.089Z,13.38
2022-10-16T21:21:18.803Z,12.27
2022-10-16T21:23:45.939Z,13.18
2022-10-16T21:26:12.750Z,12.52
2022-10-16T21:28:39.698Z,13.35
2022-10-16T21:31:19.142Z,14.52
2022-10-16T21:33:46.845Z,13.00
2022-10-16T21:36:35.637Z,15.38
2022-10-16T21:39:08.945Z,13.43
2022-10-16T21:41:36.694Z,13.38
2022-10-16T21:44:04.148Z,14.00
2022-10-16T21:46:33.540Z,14.60
2022-10-16T21:49:03.244Z,13.07
2022-10-16T21:51:37.599Z,13.30
2022-10-16T21:54:07.321Z,14.10
2022-10-16T21:56:34.769Z,13.25
2022-10-16T21:59:02.062Z,14.38
2022-10-16T22:01:31.159Z,14.18
2022-10-16T22:03:58.835Z,13.95
2022-10-16T22:06:27.744Z,12.57
2022-10-16T22:09:00.209Z,15.30
2022-10-16T22:11:36.923Z,14.10
2022-10-16T22:14:16.619Z,13.70
2022-10-16T22:16:45.429Z,14.68
2022-10-16T22:19:13.950Z,14.57
2022-10-16T22:21:42.462Z,14.10
2022-10-16T22:24:10.075Z,14.75
2022-10-16T22:26:38.435Z,14.93
2022-10-16T22:29:07.294Z,14.88
2022-10-16T22:31:35.109Z,14.70
2022-10-16T22:34:04.544Z,14.20
2022-10-16T22:36:32.740Z,14.20
2022-10-16T22:39:01.400Z,14.48
2022-10-16T22:41:28.349Z,14.90
2022-10-16T22:43:55.535Z,14.68
2022-10-16T22:46:31.149Z,14.02
2022-10-16T22:48:58.449Z,15.10
2022-10-16T22:51:27.075Z,15.93
2022-10-16T22:53:54.664Z,15.68
2022-10-16T22:56:22.395Z,16.52
2022-10-16T22:58:49.934Z,15.48
2022-10-16T23:01:19.073Z,16.30
2022-10-16T23:03:46.092Z,13.73
2022-10-16T23:06:13.286Z,15.63
2022-10-16T23:08:41.492Z,15.70
2022-10-16T23:11:10.310Z,15.33
2022-10-16T23:13:38.804Z,15.80
2022-10-16T23:16:06.992Z,15.60
2022-10-16T23:18:34.662Z,16.55
2022-10-16T23:21:06.272Z,14.98
2022-10-16T23:23:35.959Z,14.75
2022-10-16T23:26:04.273Z,15.13
2022-10-16T23:28:32.422Z,16.03
2022-10-16T23:31:00.636Z,14.00
2022-10-16T23:33:27.617Z,14.23
2022-10-16T23:35:54.717Z,14.27
2022-10-16T23:38:21.849Z,15.63
2022-10-16T23:40:48.699Z,15.98
2022-10-16T23:43:15.613Z,17.60
2022-10-16T23:45:43.058Z,15.93
2022-10-16T23:48:10.116Z,18.57
2022-10-16T23:50:36.988Z,16.57
2022-10-16T23:53:06.571Z,16.00
2022-10-16T23:55:37.068Z,15.00
2022-10-16T23:58:04.348Z,16.23
